Time;durP1;ratioP1;P1;durP2;ratioP2;P2;SDS_P1;SDS_P2;PMS_P1;PMS_P2;Temp;Humidity;BMP_temperature;BMP_pressure;BME280_temperature;BME280_humidity;BME280_pressure;Samples;Min_cycle;Max_cycle;Signal;HPM_P1;HPM_P2
2023/05/09 00:01:34;;;;;;;7.38;3.92;;;;;;;-145.41;100.00;58600.66;4962028;28;20039;-77
2023/05/09 00:04:00;;;;;;;5.60;3.20;;;;;;;-145.41;100.00;58600.66;4965721;28;20092;-77
2023/05/09 00:06:26;;;;;;;5.50;3.38;;;;;;;-145.41;100.00;58600.66;4968699;28;20126;-77
2023/05/09 00:08:55;;;;;;;5.80;3.28;;;;;;;-145.41;100.00;58600.66;4949024;28;20034;-77
2023/05/09 00:11:21;;;;;;;6.78;2.92;;;;;;;-145.41;100.00;58600.66;4963630;28;20410;-77
2023/05/09 00:13:47;;;;;;;8.18;3.40;;;;;;;-145.41;100.00;58600.66;4966146;28;20031;-77
2023/05/09 00:16:14;;;;;;;6.13;3.40;;;;;;;-145.41;100.00;58600.66;4948318;28;20050;-77
2023/05/09 00:18:41;;;;;;;6.88;3.75;;;;;;;-145.41;100.00;58600.66;4947762;28;20494;-77
2023/05/09 00:21:07;;;;;;;7.70;3.30;;;;;;;-145.41;100.00;58600.66;4964517;28;20047;-77
2023/05/09 00:23:33;;;;;;;5.93;3.65;;;;;;;-145.41;100.00;58600.66;4964777;28;20066;-77
2023/05/09 00:25:59;;;;;;;6.25;3.50;;;;;;;-145.41;100.00;58600.66;4964574;28;20039;-76
2023/05/09 00:28:24;;;;;;;7.95;3.30;;;;;;;-145.41;100.00;58600.66;4966241;28;20046;-77
2023/05/09 00:30:50;;;;;;;6.05;3.83;;;;;;;-145.41;100.00;58600.66;4964506;28;20057;-77
2023/05/09 00:33:15;;;;;;;8.18;3.67;;;;;;;-145.41;100.00;58600.66;4949002;28;20043;-77
2023/05/09 00:35:40;;;;;;;5.70;3.28;;;;;;;-145.41;100.00;58600.66;4957874;28;20035;-77
2023/05/09 00:38:06;;;;;;;9.63;3.78;;;;;;;-145.41;100.00;58600.66;4949498;28;20035;-77
2023/05/09 00:40:31;;;;;;;6.43;3.67;;;;;;;-145.41;100.00;58600.66;4964925;28;20098;-77
2023/05/09 00:42:58;;;;;;;5.65;3.30;;;;;;;-145.41;100.00;58600.66;4964180;28;20038;-77
2023/05/09 00:45:24;;;;;;;6.32;3.67;;;;;;;-145.41;100.00;58600.66;4949022;28;20058;-77
2023/05/09 00:47:49;;;;;;;6.38;3.35;;;;;;;-145.41;100.00;58600.66;4967180;28;20031;-77
2023/05/09 00:50:15;;;;;;;6.47;3.70;;;;;;;-145.41;100.00;58600.66;4957390;28;20043;-77
2023/05/09 00:52:40;;;;;;;6.60;3.83;;;;;;;-145.41;100.00;58600.66;4957712;28;20042;-77
2023/05/09 00:55:07;;;;;;;5.88;3.03;;;;;;;-145.41;100.00;58600.66;4950742;23;20186;-76
2023/05/09 00:57:33;;;;;;;5.63;3.30;;;;;;;-145.41;100.00;58600.66;4964228;28;20035;-76
2023/05/09 00:59:59;;;;;;;6.25;3.67;;;;;;;-145.41;100.00;58600.66;4960388;28;20035;-76
2023/05/09 01:02:25;;;;;;;5.30;2.90;;;;;;;-145.41;100.00;58600.66;4954690;28;20048;-75
2023/05/09 01:04:51;;;;;;;6.88;3.60;;;;;;;-145.41;100.00;58600.66;4962817;28;20039;-75
2023/05/09 01:07:34;;;;;;;9.00;3.67;;;;;;;-145.41;100.00;58600.66;4953108;28;20047;-75
2023/05/09 01:10:06;;;;;;;6.22;3.10;;;;;;;-145.41;100.00;58600.66;4943885;28;20034;-76
2023/05/09 01:12:46;;;;;;;6.10;3.13;;;;;;;-145.41;100.00;58600.66;4959104;28;20517;-75
2023/05/09 01:15:27;;;;;;;5.60;3.03;;;;;;;-145.41;100.00;58600.66;4964117;28;20102;-75
2023/05/09 01:17:58;;;;;;;8.40;3.67;;;;;;;-145.41;100.00;58600.66;4963779;28;20121;-75
2023/05/09 01:20:32;;;;;;;6.80;3.13;;;;;;;-145.41;100.00;58600.66;4962544;28;20039;-76
2023/05/09 01:23:22;;;;;;;7.50;3.47;;;;;;;-145.41;100.00;58600.66;4957725;28;20030;-75
2023/05/09 01:25:56;;;;;;;7.60;3.25;;;;;;;-145.41;100.00;58600.66;4967472;28;20041;-75
2023/05/09 01:28:42;;;;;;;6.00;3.05;;;;;;;-145.41;100.00;58600.66;4967240;28;20482;-75
2023/05/09 01:31:08;;;;;;;6.97;3.38;;;;;;;-145.41;100.00;58600.66;4967429;28;20053;-75
2023/05/09 01:33:37;;;;;;;6.15;3.50;;;;;;;-145.41;100.00;58600.66;4965476;28;20509;-75
2023/05/09 01:36:08;;;;;;;7.32;3.45;;;;;;;-145.41;100.00;58600.66;4966097;28;20042;-75
2023/05/09 01:38:37;;;;;;;5.28;3.63;;;;;;;-145.41;100.00;58600.66;4957032;28;20110;-76
2023/05/09 01:41:04;;;;;;;7.32;3.30;;;;;;;-145.41;100.00;58600.66;4969889;28;20405;-75
2023/05/09 01:43:32;;;;;;;7.63;3.65;;;;;;;-145.41;100.00;58600.66;4965674;28;20039;-75
2023/05/09 01:45:58;;;;;;;5.95;3.35;;;;;;;-145.41;100.00;58600.66;4946447;28;20043;-75
2023/05/09 01:48:25;;;;;;;5.90;3.60;;;;;;;-145.41;100.00;58600.66;4965617;28;20039;-75
2023/05/09 01:50:53;;;;;;;7.75;3.95;;;;;;;-145.41;100.00;58600.66;4965636;28;20038;-76
2023/05/09 01:53:20;;;;;;;7.75;3.65;;;;;;;-145.41;100.00;58600.66;4948069;28;20043;-75
2023/05/09 01:55:47;;;;;;;8.00;3.50;;;;;;;-145.41;100.00;58600.66;4966740;28;20039;-75
2023/05/09 01:58:14;;;;;;;6.35;3.65;;;;;;;-145.41;100.00;58600.66;4967784;28;20413;-76
2023/05/09 02:00:40;;;;;;;6.75;3.20;;;;;;;-145.41;100.00;58600.66;4963920;28;20081;-76
2023/05/09 02:03:06;;;;;;;6.38;3.40;;;;;;;-145.41;100.00;58600.66;4964264;28;20047;-75
2023/05/09 02:05:32;;;;;;;5.65;3.53;;;;;;;-145.41;100.00;58600.66;4964883;28;20039;-75
2023/05/09 02:07:58;;;;;;;7.30;3.75;;;;;;;-145.41;100.00;58600.66;4965252;28;20054;-76
2023/05/09 02:10:25;;;;;;;8.88;4.32;;;;;;;-145.41;100.00;58600.66;4962016;28;20042;-75
2023/05/09 02:12:52;;;;;;;6.95;3.95;;;;;;;-145.41;100.00;58600.66;4966052;28;20057;-75
2023/05/09 02:15:17;;;;;;;6.47;4.03;;;;;;;-145.41;100.00;58600.66;4959321;28;20493;-75
2023/05/09 02:17:42;;;;;;;6.70;3.35;;;;;;;-145.41;100.00;58600.66;4966435;28;20038;-75
2023/05/09 02:20:09;;;;;;;7.45;3.38;;;;;;;-145.41;100.00;58600.66;4962405;28;20482;-75
2023/05/09 02:22:35;;;;;;;6.38;3.45;;;;;;;-145.41;100.00;58600.66;4945270;28;20553;-75
2023/05/09 02:25:03;;;;;;;6.72;3.50;;;;;;;-145.41;100.00;58600.66;4967832;28;20121;-75
2023/05/09 02:27:31;;;;;;;8.25;3.83;;;;;;;-145.41;100.00;58600.66;4963290;28;20067;-76
2023/05/09 02:30:00;;;;;;;6.50;3.70;;;;;;;-145.41;100.00;58600.66;4963675;28;20465;-76
2023/05/09 02:32:29;;;;;;;10.73;4.30;;;;;;;-145.41;100.00;58600.66;4965090;28;20046;-75
2023/05/09 02:34:55;;;;;;;9.25;3.80;;;;;;;-145.41;100.00;58600.66;4963635;28;20710;-75
2023/05/09 02:37:23;;;;;;;8.55;3.78;;;;;;;-145.41;100.00;58600.66;4956310;28;20215;-76
2023/05/09 02:39:48;;;;;;;5.97;3.50;;;;;;;-145.41;100.00;58600.66;4964549;28;20047;-75
2023/05/09 02:42:21;;;;;;;8.13;3.15;;;;;;;-145.41;100.00;58600.66;4945918;28;20050;-75
2023/05/09 02:44:46;;;;;;;7.10;3.70;;;;;;;-145.41;100.00;58600.66;4965987;28;20504;-75
2023/05/09 02:47:14;;;;;;;8.82;3.65;;;;;;;-145.41;100.00;58600.66;4964426;28;20023;-75
2023/05/09 02:49:40;;;;;;;6.72;3.95;;;;;;;-145.41;100.00;58600.66;4962393;28;20161;-75
2023/05/09 02:52:05;;;;;;;8.20;4.10;;;;;;;-145.41;100.00;58600.66;4963795;28;20541;-75
2023/05/09 02:54:31;;;;;;;7.18;3.47;;;;;;;-145.41;100.00;58600.66;4960941;28;20031;-75
2023/05/09 02:56:56;;;;;;;7.03;3.38;;;;;;;-145.41;100.00;58600.66;4965611;28;20512;-75
2023/05/09 02:59:21;;;;;;;10.32;3.95;;;;;;;-145.41;100.00;58600.66;4962351;28;20450;-75
2023/05/09 03:01:47;;;;;;;6.53;3.65;;;;;;;-145.41;100.00;58600.66;4963525;28;20187;-75
2023/05/09 03:04:13;;;;;;;7.65;3.92;;;;;;;-145.41;100.00;58600.66;4964218;28;20038;-75
2023/05/09 03:06:39;;;;;;;6.50;3.95;;;;;;;-145.41;100.00;58600.66;4970262;28;20085;-75
2023/05/09 03:09:04;;;;;;;10.38;3.92;;;;;;;-145.41;100.00;58600.66;4962472;28;20513;-75
2023/05/09 03:11:30;;;;;;;6.40;3.65;;;;;;;-145.41;100.00;58600.66;4961999;28;20039;-75
2023/05/09 03:13:56;;;;;;;8.85;4.35;;;;;;;-145.41;100.00;58600.66;4962345;28;20027;-75
2023/05/09 03:16:21;;;;;;;9.82;4.43;;;;;;;-145.41;100.00;58600.66;4963711;28;20042;-75
2023/05/09 03:18:48;;;;;;;7.32;4.32;;;;;;;-145.41;100.00;58600.66;4965731;28;20037;-76
2023/05/09 03:21:13;;;;;;;6.60;3.50;;;;;;;-145.41;100.00;58600.66;4957932;28;20031;-75
2023/05/09 03:23:38;;;;;;;11.55;3.92;;;;;;;-145.41;100.00;58600.66;4968682;28;20034;-75
2023/05/09 03:26:04;;;;;;;7.22;4.45;;;;;;;-145.41;100.00;58600.66;4969123;28;20122;-75
2023/05/09 03:28:30;;;;;;;7.63;4.00;;;;;;;-145.41;100.00;58600.66;4965222;28;20035;-75
2023/05/09 03:30:59;;;;;;;8.30;3.60;;;;;;;-145.41;100.00;58600.66;4946019;28;20043;-75
2023/05/09 03:33:26;;;;;;;8.90;3.90;;;;;;;-145.41;100.00;58600.66;4965821;28;20501;-75
2023/05/09 03:35:52;;;;;;;6.63;3.88;;;;;;;-145.41;100.00;58600.66;4962038;28;20034;-75
2023/05/09 03:38:18;;;;;;;7.93;3.85;;;;;;;-145.41;100.00;58600.66;4945339;28;20118;-75
2023/05/09 03:40:43;;;;;;;9.93;4.43;;;;;;;-145.41;100.00;58600.66;4971133;28;20059;-75
2023/05/09 03:43:10;;;;;;;7.88;4.30;;;;;;;-145.41;100.00;58600.66;4959856;28;20043;-75
2023/05/09 03:45:37;;;;;;;7.28;4.07;;;;;;;-145.41;100.00;58600.66;4963944;28;20700;-75
2023/05/09 03:48:07;;;;;;;7.20;4.00;;;;;;;-145.41;100.00;58600.66;4960471;28;20043;-75
2023/05/09 03:50:33;;;;;;;8.52;3.60;;;;;;;-145.41;100.00;58600.66;4944438;28;20126;-75
2023/05/09 03:52:59;;;;;;;5.53;3.40;;;;;;;-145.41;100.00;58600.66;4947408;28;20113;-74
2023/05/09 03:55:24;;;;;;;6.05;3.58;;;;;;;-145.41;100.00;58600.66;4952826;28;20039;-74
2023/05/09 03:57:50;;;;;;;5.93;3.67;;;;;;;-145.41;100.00;58600.66;4963367;28;20031;-74
2023/05/09 04:00:16;;;;;;;7.88;4.40;;;;;;;-145.41;100.00;58600.66;4961634;28;20077;-74
2023/05/09 04:02:53;;;;;;;10.90;4.20;;;;;;;-145.41;100.00;58600.66;4962679;28;20034;-74
2023/05/09 04:05:29;;;;;;;7.32;4.10;;;;;;;-145.41;100.00;58600.66;4952871;28;20089;-74
2023/05/09 04:07:55;;;;;;;7.88;2.85;;;;;;;-145.41;100.00;58600.66;4952159;28;20035;-75
2023/05/09 04:10:21;;;;;;;7.68;3.75;;;;;;;-145.41;100.00;58600.66;4963356;28;20489;-75
2023/05/09 04:12:46;;;;;;;6.65;3.78;;;;;;;-145.41;100.00;58600.66;4944510;28;20031;-75
2023/05/09 04:15:14;;;;;;;6.38;3.72;;;;;;;-145.41;100.00;58600.66;4948600;28;20042;-74
2023/05/09 04:17:39;;;;;;;5.63;3.10;;;;;;;-145.41;100.00;58600.66;4947394;28;20414;-75
2023/05/09 04:20:07;;;;;;;7.65;3.65;;;;;;;-145.41;100.00;58600.66;4962130;28;20130;-74
2023/05/09 04:22:32;;;;;;;8.38;3.03;;;;;;;-145.41;100.00;58600.66;4964701;28;20038;-74
2023/05/09 04:24:58;;;;;;;7.18;3.30;;;;;;;-145.41;100.00;58600.66;4955773;28;20089;-74
2023/05/09 04:27:23;;;;;;;7.07;4.00;;;;;;;-145.41;100.00;58600.66;4949365;28;20143;-74
2023/05/09 04:29:49;;;;;;;11.65;8.02;;;;;;;-145.41;100.00;58600.66;4953592;28;20031;-74
2023/05/09 04:32:14;;;;;;;6.60;3.97;;;;;;;-145.41;100.00;58600.66;4945407;28;20046;-74
2023/05/09 04:34:40;;;;;;;5.18;3.40;;;;;;;-145.41;100.00;58600.66;4948423;28;20482;-74
2023/05/09 04:37:12;;;;;;;6.20;3.00;;;;;;;-145.41;100.00;58600.66;4959245;28;20035;-74
2023/05/09 04:39:38;;;;;;;6.93;3.25;;;;;;;-145.41;100.00;58600.66;4962760;28;20032;-74
2023/05/09 04:42:12;;;;;;;8.20;3.35;;;;;;;-145.41;100.00;58600.66;4960209;28;20039;-74
2023/05/09 04:44:37;;;;;;;5.13;2.78;;;;;;;-145.41;100.00;58600.66;4962708;28;20039;-74
2023/05/09 04:47:03;;;;;;;7.43;3.63;;;;;;;-145.41;100.00;58600.66;4949461;28;20050;-74
2023/05/09 04:49:28;;;;;;;5.28;2.63;;;;;;;-145.41;100.00;58600.66;4961560;28;20042;-74
2023/05/09 04:51:55;;;;;;;5.95;3.15;;;;;;;-145.41;100.00;58600.66;4962542;28;20086;-74
2023/05/09 04:54:20;;;;;;;5.95;3.25;;;;;;;-145.41;100.00;58600.66;4963991;28;20517;-74
2023/05/09 04:56:46;;;;;;;5.80;3.40;;;;;;;-145.41;100.00;58600.66;4969735;28;20031;-74
2023/05/09 04:59:12;;;;;;;6.88;3.78;;;;;;;-145.41;100.00;58600.66;4969791;28;20106;-74
2023/05/09 05:01:37;;;;;;;11.13;7.38;;;;;;;-145.41;100.00;58600.66;4966826;28;20035;-74
2023/05/09 05:04:03;;;;;;;11.45;7.03;;;;;;;-145.41;100.00;58600.66;4969691;28;20081;-74
2023/05/09 05:06:30;;;;;;;12.35;7.93;;;;;;;-145.41;100.00;58600.66;4967800;28;20035;-75
2023/05/09 05:08:57;;;;;;;8.88;4.10;;;;;;;-145.41;100.00;58600.66;4966096;28;20031;-74
2023/05/09 05:11:22;;;;;;;5.95;3.30;;;;;;;-145.41;100.00;58600.66;4947992;28;20381;-74
2023/05/09 05:13:48;;;;;;;4.97;2.90;;;;;;;-145.41;100.00;58600.66;4965164;28;20502;-74
2023/05/09 05:16:13;;;;;;;5.55;3.03;;;;;;;-145.41;100.00;58600.66;4963723;28;20506;-74
2023/05/09 05:18:39;;;;;;;7.22;2.80;;;;;;;-145.41;100.00;58600.66;4966281;28;20027;-74
2023/05/09 05:21:05;;;;;;;9.25;2.83;;;;;;;-145.41;100.00;58600.66;4963535;28;20133;-74
2023/05/09 05:23:30;;;;;;;5.20;3.20;;;;;;;-145.41;100.00;58600.66;4951769;28;20034;-74
2023/05/09 05:25:56;;;;;;;5.70;3.20;;;;;;;-145.41;100.00;58600.66;4970382;28;20042;-74
2023/05/09 05:28:22;;;;;;;7.45;3.10;;;;;;;-145.41;100.00;58600.66;4967218;28;20030;-75
2023/05/09 05:30:47;;;;;;;6.13;3.47;;;;;;;-145.41;100.00;58600.66;4967166;28;20038;-74
2023/05/09 05:33:13;;;;;;;6.85;3.75;;;;;;;-145.41;100.00;58600.66;4963975;28;20089;-75
2023/05/09 05:35:38;;;;;;;6.13;3.55;;;;;;;-145.41;100.00;58600.66;4967242;28;20039;-75
2023/05/09 05:38:04;;;;;;;5.22;3.60;;;;;;;-145.41;100.00;58600.66;4965868;28;20027;-74
2023/05/09 05:40:29;;;;;;;6.45;3.35;;;;;;;-145.41;100.00;58600.66;4955328;28;20039;-74
2023/05/09 05:42:58;;;;;;;7.63;3.25;;;;;;;-145.41;100.00;58600.66;4946324;28;20043;-74
2023/05/09 05:45:24;;;;;;;6.95;2.85;;;;;;;-145.41;100.00;58600.66;4965347;28;20169;-75
2023/05/09 05:47:53;;;;;;;4.90;3.10;;;;;;;-145.41;100.00;58600.66;4949432;28;20043;-74
2023/05/09 05:50:18;;;;;;;6.88;3.33;;;;;;;-145.41;100.00;58600.66;4964261;28;20031;-75
2023/05/09 05:52:44;;;;;;;4.80;3.20;;;;;;;-145.41;100.00;58600.66;4963171;28;20031;-75
2023/05/09 05:55:13;;;;;;;5.25;3.15;;;;;;;-145.41;100.00;58600.66;4963922;28;20049;-75
2023/05/09 05:57:39;;;;;;;6.80;3.10;;;;;;;-145.41;100.00;58600.66;4966468;28;20402;-75
2023/05/09 06:00:10;;;;;;;5.53;2.67;;;;;;;-145.41;100.00;58600.66;4964915;28;20038;-75
2023/05/09 06:02:51;;;;;;;4.82;2.80;;;;;;;-145.41;100.00;58600.66;4965409;28;20041;-74
2023/05/09 06:05:22;;;;;;;5.68;2.90;;;;;;;-145.41;100.00;58600.66;4949169;28;20035;-75
2023/05/09 06:07:49;;;;;;;7.07;3.40;;;;;;;-145.41;100.00;58600.66;4966243;28;20417;-75
2023/05/09 06:10:15;;;;;;;5.50;3.40;;;;;;;-145.41;100.00;58600.66;4963495;28;20031;-75
2023/05/09 06:12:43;;;;;;;7.03;3.30;;;;;;;-145.41;100.00;58600.66;4962693;28;20039;-75
2023/05/09 06:15:08;;;;;;;5.22;3.03;;;;;;;-145.41;100.00;58600.66;4965285;28;20069;-74
2023/05/09 06:17:37;;;;;;;8.90;3.58;;;;;;;-145.41;100.00;58600.66;4965459;28;20031;-75
2023/05/09 06:20:03;;;;;;;4.72;2.63;;;;;;;-145.41;100.00;58600.66;4964587;28;20391;-75
2023/05/09 06:22:29;;;;;;;7.78;3.17;;;;;;;-145.41;100.00;58600.66;4961564;28;20042;-75
2023/05/09 06:24:54;;;;;;;4.78;2.72;;;;;;;-145.41;100.00;58600.66;4966089;28;20382;-75
2023/05/09 06:27:19;;;;;;;6.25;2.88;;;;;;;-145.41;100.00;58600.66;4966199;28;20547;-75
2023/05/09 06:29:45;;;;;;;5.15;3.15;;;;;;;-145.41;100.00;58600.66;4961046;28;20049;-75
2023/05/09 06:32:10;;;;;;;6.03;2.60;;;;;;;-145.41;100.00;58600.66;4966060;28;20146;-75
2023/05/09 06:34:35;;;;;;;6.80;2.97;;;;;;;-145.41;100.00;58600.66;4966012;28;20169;-75
2023/05/09 06:37:01;;;;;;;7.32;3.33;;;;;;;-145.41;100.00;58600.66;4966122;28;20121;-75
2023/05/09 06:39:26;;;;;;;7.20;2.95;;;;;;;-145.41;100.00;58600.66;4964459;28;20240;-75
2023/05/09 06:41:51;;;;;;;6.30;2.67;;;;;;;-145.41;100.00;58600.66;4962309;28;20110;-75
2023/05/09 06:44:23;;;;;;;5.72;2.65;;;;;;;-145.41;100.00;58600.66;4967941;28;20031;-75
2023/05/09 06:46:48;;;;;;;6.93;3.10;;;;;;;-145.41;100.00;58600.66;4965184;28;20072;-75
2023/05/09 06:49:14;;;;;;;6.20;2.38;;;;;;;-145.41;100.00;58600.66;4965490;28;20035;-76
2023/05/09 06:51:39;;;;;;;6.22;2.38;;;;;;;-145.41;100.00;58600.66;4964495;28;20086;-75
2023/05/09 06:54:04;;;;;;;5.85;3.28;;;;;;;-145.41;100.00;58600.66;4965649;28;20481;-75
2023/05/09 06:56:30;;;;;;;6.30;3.55;;;;;;;-145.41;100.00;58600.66;4963427;28;20039;-75
2023/05/09 06:58:55;;;;;;;6.95;3.40;;;;;;;-145.41;100.00;58600.66;4985149;23;20061;-79
2023/05/09 07:01:20;;;;;;;5.10;2.45;;;;;;;-145.41;100.00;58600.66;4984607;28;20070;-79
2023/05/09 07:03:46;;;;;;;6.38;3.25;;;;;;;-145.41;100.00;58600.66;4986104;28;20101;-79
2023/05/09 07:06:12;;;;;;;5.05;2.55;;;;;;;-145.41;100.00;58600.66;4988814;28;20049;-79
2023/05/09 07:08:40;;;;;;;5.22;2.80;;;;;;;-145.41;100.00;58600.66;4987378;28;20032;-78
2023/05/09 07:11:05;;;;;;;5.70;2.85;;;;;;;-145.41;100.00;58600.66;4987534;28;20030;-78
2023/05/09 07:13:31;;;;;;;8.38;4.53;;;;;;;-145.41;100.00;58600.66;4985724;28;20456;-79
2023/05/09 07:15:56;;;;;;;8.10;5.70;;;;;;;-145.41;100.00;58600.66;4986693;28;20506;-79
2023/05/09 07:18:22;;;;;;;5.55;3.05;;;;;;;-145.41;100.00;58600.66;4987701;28;20035;-79
2023/05/09 07:20:47;;;;;;;8.20;5.40;;;;;;;-145.41;100.00;58600.66;4986243;28;20070;-79
2023/05/09 07:23:12;;;;;;;15.50;5.22;;;;;;;-145.41;100.00;58600.66;4971994;28;20099;-79
2023/05/09 07:25:37;;;;;;;8.65;5.43;;;;;;;-145.41;100.00;58600.66;4987010;28;20100;-78
2023/05/09 07:28:03;;;;;;;7.47;5.15;;;;;;;-145.41;100.00;58600.66;4988457;28;20035;-79
2023/05/09 07:30:28;;;;;;;8.15;4.90;;;;;;;-145.41;100.00;58600.66;4987842;28;20050;-78
2023/05/09 07:32:54;;;;;;;7.00;5.28;;;;;;;-145.41;100.00;58600.66;4990220;28;20069;-79
2023/05/09 07:35:20;;;;;;;8.68;5.03;;;;;;;-145.41;100.00;58600.66;4975325;28;20089;-79
2023/05/09 07:37:45;;;;;;;8.65;4.40;;;;;;;-145.41;100.00;58600.66;4989329;28;20038;-79
2023/05/09 07:40:11;;;;;;;7.03;4.90;;;;;;;-145.41;100.00;58600.66;4987999;28;20049;-79
2023/05/09 07:42:37;;;;;;;8.45;3.30;;;;;;;-145.41;100.00;58600.66;4988938;28;20045;-79
2023/05/09 07:45:04;;;;;;;7.13;2.92;;;;;;;-145.41;100.00;58600.66;4988992;28;20122;-79
2023/05/09 07:47:31;;;;;;;5.32;2.60;;;;;;;-145.41;100.00;58600.66;4990905;28;20058;-79
2023/05/09 07:49:56;;;;;;;3.47;2.28;;;;;;;-145.41;100.00;58600.66;4984891;28;20076;-79
2023/05/09 07:52:21;;;;;;;6.38;2.65;;;;;;;-145.41;100.00;58600.66;4988715;28;20117;-79
2023/05/09 07:54:47;;;;;;;5.97;2.25;;;;;;;-145.41;100.00;58600.66;4985588;28;20054;-79
2023/05/09 07:57:12;;;;;;;4.10;2.03;;;;;;;-145.41;100.00;58600.66;4978290;28;20042;-79
2023/05/09 07:59:38;;;;;;;8.43;2.13;;;;;;;-145.41;100.00;58600.66;4986956;28;20116;-79
2023/05/09 08:02:03;;;;;;;5.13;2.20;;;;;;;-145.41;100.00;58600.66;4984600;28;20052;-79
2023/05/09 08:04:28;;;;;;;6.20;2.80;;;;;;;-145.41;100.00;58600.66;4987046;28;20042;-79
2023/05/09 08:06:54;;;;;;;4.80;2.22;;;;;;;-145.41;100.00;58600.66;4987801;28;20138;-79
2023/05/09 08:09:20;;;;;;;5.85;2.28;;;;;;;-145.41;100.00;58600.66;4987539;28;20062;-79
2023/05/09 08:11:45;;;;;;;5.35;2.13;;;;;;;-145.41;100.00;58600.66;4986474;28;20038;-79
2023/05/09 08:14:11;;;;;;;3.63;1.80;;;;;;;-145.41;100.00;58600.66;4985544;28;20061;-79
2023/05/09 08:16:36;;;;;;;5.88;2.00;;;;;;;-145.41;100.00;58600.66;4987392;28;20046;-79
2023/05/09 08:19:02;;;;;;;4.53;2.35;;;;;;;-145.41;100.00;58600.66;4985723;28;20042;-79
2023/05/09 08:21:27;;;;;;;8.10;3.88;;;;;;;-145.41;100.00;58600.66;4987468;28;20034;-79
2023/05/09 08:23:52;;;;;;;7.18;4.00;;;;;;;-145.41;100.00;58600.66;4988149;28;20057;-79
2023/05/09 08:26:18;;;;;;;8.25;4.00;;;;;;;-145.41;100.00;58600.66;4986455;28;20065;-78
2023/05/09 08:28:43;;;;;;;7.75;4.82;;;;;;;-145.41;100.00;58600.66;4987883;28;20046;-79
2023/05/09 08:31:09;;;;;;;9.10;4.82;;;;;;;-145.41;100.00;58600.66;4990008;28;20034;-79
2023/05/09 08:33:34;;;;;;;9.00;3.17;;;;;;;-145.41;100.00;58600.66;4990351;28;20038;-79
2023/05/09 08:36:00;;;;;;;7.38;2.50;;;;;;;-145.41;100.00;58600.66;4992042;28;20073;-79
2023/05/09 08:38:25;;;;;;;6.15;3.40;;;;;;;-145.41;100.00;58600.66;4995092;28;20034;-79
2023/05/09 08:40:51;;;;;;;6.35;4.00;;;;;;;-145.41;100.00;58600.66;4990217;28;20035;-79
2023/05/09 08:43:19;;;;;;;5.25;2.75;;;;;;;-145.41;100.00;58600.66;4991122;28;20501;-79
2023/05/09 08:45:53;;;;;;;5.68;3.38;;;;;;;-145.41;100.00;58600.66;4989748;28;20077;-79
2023/05/09 08:48:21;;;;;;;5.68;3.55;;;;;;;-145.41;100.00;58600.66;4993587;28;20085;-79
2023/05/09 08:50:47;;;;;;;4.68;2.70;;;;;;;-145.41;100.00;58600.66;4988971;28;20047;-79
2023/05/09 08:53:13;;;;;;;4.25;2.65;;;;;;;-145.41;100.00;58600.66;4992214;28;20501;-79
2023/05/09 08:55:38;;;;;;;5.22;2.38;;;;;;;-145.41;100.00;58600.66;4990571;28;20081;-79
2023/05/09 08:58:04;;;;;;;5.85;3.20;;;;;;;-145.41;100.00;58600.66;4974592;28;20086;-79
2023/05/09 09:00:31;;;;;;;5.35;2.88;;;;;;;-145.41;100.00;58600.66;4973788;28;20535;-79
2023/05/09 09:03:00;;;;;;;5.28;3.20;;;;;;;-145.41;100.00;58600.66;4988847;28;20462;-79
2023/05/09 09:05:27;;;;;;;4.05;2.30;;;;;;;-145.41;100.00;58600.66;4991616;28;20050;-79
2023/05/09 09:07:53;;;;;;;5.07;2.60;;;;;;;-145.41;100.00;58600.66;4991127;28;20046;-79
2023/05/09 09:10:20;;;;;;;4.32;1.90;;;;;;;-145.41;100.00;58600.66;4989613;28;20057;-79
2023/05/09 09:12:45;;;;;;;3.08;1.63;;;;;;;-145.41;100.00;58600.66;4991331;28;20066;-79
2023/05/09 09:15:17;;;;;;;4.70;2.03;;;;;;;-145.41;100.00;58600.66;4989695;28;20070;-79
2023/05/09 09:17:46;;;;;;;6.00;1.87;;;;;;;-145.41;100.00;58600.66;4993573;28;20041;-79
2023/05/09 09:20:13;;;;;;;5.68;1.90;;;;;;;-145.41;100.00;58600.66;4988100;28;20046;-79
2023/05/09 09:22:42;;;;;;;6.78;2.42;;;;;;;-145.41;100.00;58600.66;4991597;28;20038;-78
2023/05/09 09:25:07;;;;;;;4.28;1.65;;;;;;;-145.41;100.00;58600.66;4989947;28;20045;-79
2023/05/09 09:27:33;;;;;;;6.07;2.10;;;;;;;-145.41;100.00;58600.66;4982010;28;20030;-79
2023/05/09 09:30:09;;;;;;;3.22;1.60;;;;;;;-145.41;100.00;58600.66;4985651;28;20081;-78
2023/05/09 09:32:35;;;;;;;4.15;1.92;;;;;;;-145.41;100.00;58600.66;4989061;28;20539;-77
2023/05/09 09:35:08;;;;;;;3.58;1.75;;;;;;;-145.41;100.00;58600.66;4984155;28;20039;-78
2023/05/09 09:37:34;;;;;;;3.33;1.60;;;;;;;-145.41;100.00;58600.66;4986645;28;20026;-78
2023/05/09 09:40:00;;;;;;;5.88;2.20;;;;;;;-145.41;100.00;58600.66;4986179;28;20046;-78
2023/05/09 09:42:25;;;;;;;8.30;3.17;;;;;;;-145.41;100.00;58600.66;4985739;28;20038;-77
2023/05/09 09:45:08;;;;;;;5.70;2.47;;;;;;;-145.41;100.00;58600.66;4983563;28;20041;-77
2023/05/09 09:47:33;;;;;;;4.22;2.35;;;;;;;-145.41;100.00;58600.66;4986568;28;20048;-77
2023/05/09 09:50:08;;;;;;;6.05;2.60;;;;;;;-145.41;100.00;58600.66;4983335;28;20042;-77
2023/05/09 09:52:34;;;;;;;4.40;2.55;;;;;;;-145.41;100.00;58600.66;4986373;28;20062;-77
2023/05/09 09:55:00;;;;;;;5.40;1.50;;;;;;;-145.41;100.00;58600.66;4986208;28;20509;-77
2023/05/09 09:57:33;;;;;;;4.75;1.98;;;;;;;-145.41;100.00;58600.66;4986222;28;20536;-78
2023/05/09 09:59:59;;;;;;;4.38;2.80;;;;;;;-145.41;100.00;58600.66;4966762;28;20413;-78
2023/05/09 10:02:24;;;;;;;5.25;2.92;;;;;;;-145.41;100.00;58600.66;4986054;28;20049;-78
2023/05/09 10:04:50;;;;;;;6.72;2.50;;;;;;;-145.41;100.00;58600.66;4974961;28;20022;-77
2023/05/09 10:07:17;;;;;;;3.55;1.77;;;;;;;-145.41;100.00;58600.66;4987033;28;20092;-77
2023/05/09 10:09:44;;;;;;;4.53;1.85;;;;;;;-145.41;100.00;58600.66;4986349;28;20046;-77
2023/05/09 10:12:10;;;;;;;4.65;2.08;;;;;;;-145.41;100.00;58600.66;4988963;28;20492;-77
2023/05/09 10:14:37;;;;;;;7.57;1.55;;;;;;;-145.41;100.00;58600.66;4987986;28;20042;-78
2023/05/09 10:17:04;;;;;;;2.85;1.50;;;;;;;-145.41;100.00;58600.66;4985562;28;20081;-78
2023/05/09 10:19:30;;;;;;;4.72;1.40;;;;;;;-145.41;100.00;58600.66;4987106;28;20117;-77
2023/05/09 10:22:01;;;;;;;4.00;1.90;;;;;;;-145.41;100.00;58600.66;4987486;28;20113;-77
2023/05/09 10:24:38;;;;;;;5.63;1.70;;;;;;;-145.41;100.00;58600.66;4986544;28;20049;-77
2023/05/09 10:27:09;;;;;;;4.05;2.10;;;;;;;-145.41;100.00;58600.66;4967211;28;20034;-79
2023/05/09 10:29:37;;;;;;;2.97;1.40;;;;;;;-145.41;100.00;58600.66;4968678;28;20112;-78
2023/05/09 10:32:26;;;;;;;6.22;1.90;;;;;;;-145.41;100.00;58600.66;4986267;28;20065;-77
2023/05/09 10:34:57;;;;;;;2.92;1.60;;;;;;;-145.41;100.00;58600.66;4993199;28;20121;-77
2023/05/09 10:37:23;;;;;;;3.65;1.98;;;;;;;-145.41;100.00;58600.66;4995071;28;20049;-78
2023/05/09 10:39:54;;;;;;;4.65;1.75;;;;;;;-145.41;100.00;58600.66;4992664;28;20405;-78
2023/05/09 10:42:21;;;;;;;2.88;1.60;;;;;;;-145.41;100.00;58600.66;4987107;28;20041;-77
2023/05/09 10:44:48;;;;;;;3.90;2.70;;;;;;;-145.41;100.00;58600.66;4970632;28;20565;-77
2023/05/09 10:47:15;;;;;;;7.13;2.80;;;;;;;-145.41;100.00;58600.66;4985399;28;20030;-77
2023/05/09 10:49:41;;;;;;;6.18;2.67;;;;;;;-145.41;100.00;58600.66;4987003;28;20553;-77
2023/05/09 10:52:07;;;;;;;8.02;2.60;;;;;;;-145.41;100.00;58600.66;4986744;28;20060;-78
2023/05/09 10:54:35;;;;;;;3.47;1.77;;;;;;;-145.41;100.00;58600.66;4989126;28;20030;-78
2023/05/09 10:57:00;;;;;;;4.57;2.40;;;;;;;-145.41;100.00;58600.66;4987335;28;20038;-78
2023/05/09 10:59:40;;;;;;;6.22;3.38;;;;;;;-145.41;100.00;58600.66;4987155;28;20027;-78
2023/05/09 11:02:12;;;;;;;4.45;2.20;;;;;;;-145.41;100.00;58600.66;4982650;28;20065;-77
2023/05/09 11:04:39;;;;;;;;;;;;;;;-145.41;100.00;58600.66;4987732;28;20458;-78
2023/05/09 11:07:22;;;;;;;4.47;1.88;;;;;;;-145.41;100.00;58600.66;4985992;28;20376;-77
2023/05/09 11:10:13;;;;;;;4.93;2.13;;;;;;;-145.41;100.00;58600.66;4988201;28;20049;-78